Time,TemperatureF,DewpointF,PressureIn,WindDirection,WindDirectionDegrees,WindSpeedMPH,WindSpeedGustMPH,Humidity,HourlyPrecipIn,Conditions,Clouds,dailyrainin,SoftwareType,DateUTC
2013-08-24 00:01:00,59.4,58.0,30.11,NE,47,0.0,1.0,95,0.00,,,0.00,weatherlink.com 1.10,2013-08-24 04:01:00,
2013-08-24 00:16:00,59.2,58.0,30.12,NE,47,0.0,1.0,95,0.00,,,0.00,weatherlink.com 1.10,2013-08-24 04:16:00,
2013-08-24 00:31:00,59.3,58.0,30.12,NE,47,0.0,1.0,95,0.00,,,0.00,weatherlink.com 1.10,2013-08-24 04:31:00,
2013-08-24 00:46:00,58.9,58.0,30.12,NE,47,0.0,1.0,95,0.00,,,0.00,weatherlink.com 1.10,2013-08-24 04:46:00,
2013-08-24 01:01:00,58.9,58.0,30.12,NE,47,0.0,1.0,95,0.00,,,0.00,weatherlink.com 1.10,2013-08-24 05:01:00,
2013-08-24 01:16:00,58.9,58.0,30.12,NE,47,1.0,1.0,95,0.00,,,0.00,weatherlink.com 1.10,2013-08-24 05:16:00,
2013-08-24 01:31:00,58.8,57.0,30.13,NE,47,0.0,1.0,95,0.00,,,0.00,weatherlink.com 1.10,2013-08-24 05:31:00,
2013-08-24 01:46:00,58.8,57.0,30.13,NE,47,0.0,1.0,95,0.00,,,0.00,weatherlink.com 1.10,2013-08-24 05:46:00,
2013-08-24 02:16:00,58.9,58.0,30.13,NE,48,0.0,0.0,96,0.00,,,0.00,weatherlink.com 1.10,2013-08-24 06:16:00,
2013-08-24 02:31:00,58.9,58.0,30.13,NE,48,0.0,2.0,96,0.00,,,0.00,weatherlink.com 1.10,2013-08-24 06:31:00,
2013-08-24 02:46:00,59.0,58.0,30.14,NE,48,0.0,1.0,96,0.00,,,0.00,weatherlink.com 1.10,2013-08-24 06:46:00,
2013-08-24 03:01:00,59.0,58.0,30.15,NE,48,1.0,1.0,96,0.00,,,0.00,weatherlink.com 1.10,2013-08-24 07:01:00,
2013-08-24 03:16:00,59.0,58.0,30.15,NE,47,0.0,2.0,96,0.00,,,0.00,weatherlink.com 1.10,2013-08-24 07:16:00,
2013-08-24 03:31:00,59.0,58.0,30.16,NNW,344,1.0,2.0,96,0.00,,,0.00,weatherlink.com 1.10,2013-08-24 07:31:00,
2013-08-24 03:46:00,59.2,58.0,30.15,NNW,345,0.0,3.0,96,0.00,,,0.00,weatherlink.com 1.10,2013-08-24 07:46:00,
2013-08-24 04:01:00,59.5,58.0,30.16,North,359,0.0,2.0,96,0.00,,,0.00,weatherlink.com 1.10,2013-08-24 08:01:00,
2013-08-24 04:16:00,60.3,59.0,30.16,NNE,18,0.0,3.0,96,0.00,,,0.00,weatherlink.com 1.10,2013-08-24 08:16:00,
2013-08-24 04:31:00,61.4,60.0,30.17,North,8,1.0,4.0,96,0.00,,,0.00,weatherlink.com 1.10,2013-08-24 08:31:00,
2013-08-24 04:46:00,62.1,60.0,30.17,North,359,1.0,3.0,94,0.00,,,0.00,weatherlink.com 1.10,2013-08-24 08:46:00,
2013-08-24 05:01:00,62.5,60.0,30.18,NNE,33,0.0,5.0,92,0.00,,,0.00,weatherlink.com 1.10,2013-08-24 09:01:00,
2013-08-24 05:16:00,62.6,60.0,30.18,North,5,3.0,4.0,90,0.00,,,0.00,weatherlink.com 1.10,2013-08-24 09:16:00,
2013-08-24 05:31:00,62.9,59.0,30.20,NNE,20,1.0,4.0,88,0.00,,,0.00,weatherlink.com 1.10,2013-08-24 09:31:00,
2013-08-24 05:46:00,62.3,59.0,30.20,North,359,0.0,3.0,88,0.00,,,0.00,weatherlink.com 1.10,2013-08-24 09:46:00,
2013-08-24 06:01:00,61.9,58.0,30.21,NNE,12,2.0,3.0,88,0.00,,,0.00,weatherlink.com 1.10,2013-08-24 10:01:00,
2013-08-24 06:16:00,61.5,58.0,30.21,North,359,0.0,4.0,88,0.00,,,0.00,weatherlink.com 1.10,2013-08-24 10:16:00,
2013-08-24 06:31:00,61.2,58.0,30.22,North,359,0.0,4.0,88,0.00,,,0.00,weatherlink.com 1.10,2013-08-24 10:31:00,
2013-08-24 06:47:00,61.0,58.0,30.23,North,1,0.0,3.0,89,0.00,,,0.00,weatherlink.com 1.10,2013-08-24 10:47:00,
2013-08-24 07:02:00,62.1,59.0,30.23,NNE,12,0.0,4.0,88,0.00,,,0.00,weatherlink.com 1.10,2013-08-24 11:02:00,
2013-08-24 07:17:00,63.5,60.0,30.23,NNW,330,2.0,5.0,87,0.00,,,0.00,weatherlink.com 1.10,2013-08-24 11:17:00,
2013-08-24 07:32:00,64.7,60.0,30.24,NNW,341,3.0,8.0,84,0.00,,,0.00,weatherlink.com 1.10,2013-08-24 11:32:00,
2013-08-24 07:47:00,65.5,60.0,30.25,NNW,330,1.0,9.0,83,0.00,,,0.00,weatherlink.com 1.10,2013-08-24 11:47:00,
2013-08-24 08:02:00,66.9,61.0,30.25,North,10,3.0,7.0,80,0.00,,,0.00,weatherlink.com 1.10,2013-08-24 12:02:00,
2013-08-24 08:17:00,67.7,61.0,30.25,North,360,1.0,8.0,78,0.00,,,0.00,weatherlink.com 1.10,2013-08-24 12:17:00,
2013-08-24 08:32:00,68.4,60.0,30.25,NE,53,2.0,9.0,74,0.00,,,0.00,weatherlink.com 1.10,2013-08-24 12:32:00,
2013-08-24 08:47:00,68.8,59.0,30.25,NW,304,6.0,9.0,72,0.00,,,0.00,weatherlink.com 1.10,2013-08-24 12:47:00,
2013-08-24 09:02:00,69.3,59.0,30.26,East,86,3.0,12.0,69,0.00,,,0.00,weatherlink.com 1.10,2013-08-24 13:02:00,
2013-08-24 09:17:00,70.0,60.0,30.26,NW,316,3.0,9.0,71,0.00,,,0.00,weatherlink.com 1.10,2013-08-24 13:17:00,
2013-08-24 09:32:00,70.8,57.0,30.27,NNE,28,5.0,8.0,63,0.00,,,0.00,weatherlink.com 1.10,2013-08-24 13:32:00,
2013-08-24 09:47:00,70.5,56.0,30.27,North,1,8.0,14.0,61,0.00,,,0.00,weatherlink.com 1.10,2013-08-24 13:47:00,
2013-08-24 10:02:00,70.6,54.0,30.27,NNW,343,8.0,12.0,56,0.00,,,0.00,weatherlink.com 1.10,2013-08-24 14:02:00,
2013-08-24 10:17:00,71.7,56.0,30.28,East,97,2.0,8.0,59,0.00,,,0.00,weatherlink.com 1.10,2013-08-24 14:17:00,
2013-08-24 10:32:00,71.9,56.0,30.28,NE,36,5.0,7.0,57,0.00,,,0.00,weatherlink.com 1.10,2013-08-24 14:32:00,
2013-08-24 10:47:00,71.3,54.0,30.28,North,359,5.0,14.0,55,0.00,,,0.00,weatherlink.com 1.10,2013-08-24 14:47:00,
2013-08-24 11:02:00,71.5,55.0,30.28,NNW,340,4.0,12.0,57,0.00,,,0.00,weatherlink.com 1.10,2013-08-24 15:02:00,
2013-08-24 11:17:00,71.2,52.0,30.29,NNE,13,2.0,13.0,50,0.00,,,0.00,weatherlink.com 1.10,2013-08-24 15:17:00,
2013-08-24 11:32:00,72.2,54.0,30.29,NNE,15,6.0,15.0,53,0.00,,,0.00,weatherlink.com 1.10,2013-08-24 15:32:00,
2013-08-24 11:47:00,72.3,51.0,30.29,NNE,13,5.0,12.0,48,0.00,,,0.00,weatherlink.com 1.10,2013-08-24 15:47:00,
2013-08-24 12:02:00,72.8,52.0,30.29,NNW,336,7.0,10.0,48,0.00,,,0.00,weatherlink.com 1.10,2013-08-24 16:02:00,
2013-08-24 12:17:00,72.2,52.0,30.29,North,11,9.0,16.0,50,0.00,,,0.00,weatherlink.com 1.10,2013-08-24 16:17:00,
2013-08-24 12:32:00,72.3,54.0,30.29,ENE,65,1.0,11.0,52,0.00,,,0.00,weatherlink.com 1.10,2013-08-24 16:32:00,
2013-08-24 12:47:00,72.2,51.0,30.29,North,352,7.0,11.0,47,0.00,,,0.00,weatherlink.com 1.10,2013-08-24 16:47:00,
2013-08-24 13:02:00,72.2,51.0,30.30,East,84,3.0,11.0,47,0.00,,,0.00,weatherlink.com 1.10,2013-08-24 17:02:00,
2013-08-24 13:18:00,72.7,53.0,30.30,NNE,13,7.0,11.0,50,0.00,,,0.00,weatherlink.com 1.10,2013-08-24 17:18:00,
2013-08-24 13:33:00,73.6,53.0,30.30,SE,129,2.0,13.0,48,0.00,,,0.00,weatherlink.com 1.10,2013-08-24 17:33:00,
2013-08-24 13:48:00,73.7,50.0,30.30,NNW,342,5.0,10.0,44,0.00,,,0.00,weatherlink.com 1.10,2013-08-24 17:48:00,
2013-08-24 14:03:00,72.4,51.0,30.30,South,176,1.0,13.0,48,0.00,,,0.00,weatherlink.com 1.10,2013-08-24 18:03:00,
2013-08-24 14:18:00,72.9,51.0,30.29,NNE,20,3.0,13.0,46,0.00,,,0.00,weatherlink.com 1.10,2013-08-24 18:18:00,
2013-08-24 14:33:00,74.2,53.0,30.29,NNE,18,1.0,7.0,48,0.00,,,0.00,weatherlink.com 1.10,2013-08-24 18:33:00,
2013-08-24 14:48:00,74.2,51.0,30.29,NW,308,2.0,8.0,45,0.00,,,0.00,weatherlink.com 1.10,2013-08-24 18:48:00,
2013-08-24 15:03:00,74.3,52.0,30.29,East,98,1.0,9.0,45,0.00,,,0.00,weatherlink.com 1.10,2013-08-24 19:03:00,
2013-08-24 15:18:00,74.1,52.0,30.30,ENE,58,1.0,8.0,47,0.00,,,0.00,weatherlink.com 1.10,2013-08-24 19:18:00,
2013-08-24 15:33:00,73.4,50.0,30.30,ESE,108,3.0,9.0,44,0.00,,,0.00,weatherlink.com 1.10,2013-08-24 19:33:00,
2013-08-24 15:48:00,73.7,52.0,30.30,ENE,66,4.0,5.0,47,0.00,,,0.00,weatherlink.com 1.10,2013-08-24 19:48:00,
2013-08-24 16:04:00,73.9,54.0,30.30,NNE,26,3.0,5.0,50,0.00,,,0.00,weatherlink.com 1.10,2013-08-24 20:04:00,
2013-08-24 16:18:00,72.6,52.0,30.30,North,358,1.0,10.0,48,0.00,,,0.00,weatherlink.com 1.10,2013-08-24 20:18:00,
2013-08-24 16:33:00,71.8,49.0,30.30,NE,38,4.0,10.0,45,0.00,,,0.00,weatherlink.com 1.10,2013-08-24 20:33:00,
2013-08-24 16:48:00,71.8,50.0,30.30,NE,34,2.0,10.0,46,0.00,,,0.00,weatherlink.com 1.10,2013-08-24 20:48:00,
2013-08-24 17:03:00,71.7,50.0,30.30,SE,127,3.0,10.0,47,0.00,,,0.00,weatherlink.com 1.10,2013-08-24 21:03:00,
2013-08-24 17:18:00,71.5,50.0,30.30,NE,36,0.0,8.0,47,0.00,,,0.00,weatherlink.com 1.10,2013-08-24 21:18:00,
2013-08-24 17:33:00,71.0,50.0,30.30,NNE,19,5.0,8.0,47,0.00,,,0.00,weatherlink.com 1.10,2013-08-24 21:33:00,
2013-08-24 17:48:00,70.4,50.0,30.30,NE,52,0.0,7.0,49,0.00,,,0.00,weatherlink.com 1.10,2013-08-24 21:48:00,
2013-08-24 18:03:00,69.8,49.0,30.30,NNE,14,5.0,7.0,48,0.00,,,0.00,weatherlink.com 1.10,2013-08-24 22:03:00,
2013-08-24 18:18:00,68.5,50.0,30.30,North,2,1.0,6.0,51,0.00,,,0.00,weatherlink.com 1.10,2013-08-24 22:18:00,
2013-08-24 18:33:00,67.3,50.0,30.30,NNE,23,0.0,3.0,54,0.00,,,0.00,weatherlink.com 1.10,2013-08-24 22:33:00,
2013-08-24 18:48:00,66.3,52.0,30.30,NNE,23,1.0,2.0,61,0.00,,,0.00,weatherlink.com 1.10,2013-08-24 22:48:00,
2013-08-24 19:03:00,63.0,53.0,30.30,NNE,23,0.0,2.0,69,0.00,,,0.00,weatherlink.com 1.10,2013-08-24 23:03:00,
2013-08-24 19:18:00,60.7,52.0,30.30,NNE,23,0.0,1.0,73,0.00,,,0.00,weatherlink.com 1.10,2013-08-24 23:18:00,
2013-08-24 19:33:00,58.5,51.0,30.31,NNE,23,0.0,1.0,77,0.00,,,0.00,weatherlink.com 1.10,2013-08-24 23:33:00,
2013-08-24 19:48:00,56.6,51.0,30.32,NNE,23,0.0,1.0,80,0.00,,,0.00,weatherlink.com 1.10,2013-08-24 23:48:00,
2013-08-24 20:03:00,55.1,50.0,30.32,NNE,23,0.0,1.0,84,0.00,,,0.00,weatherlink.com 1.10,2013-08-25 00:03:00,
2013-08-24 20:18:00,54.2,50.0,30.32,NNE,23,0.0,1.0,86,0.00,,,0.00,weatherlink.com 1.10,2013-08-25 00:18:00,
2013-08-24 20:33:00,53.3,50.0,30.33,NNE,23,1.0,1.0,87,0.00,,,0.00,weatherlink.com 1.10,2013-08-25 00:33:00,
2013-08-24 20:48:00,52.5,49.0,30.34,NNE,23,0.0,0.0,88,0.00,,,0.00,weatherlink.com 1.10,2013-08-25 00:48:00,
2013-08-24 21:03:00,51.8,49.0,30.34,NNE,23,0.0,1.0,90,0.00,,,0.00,weatherlink.com 1.10,2013-08-25 01:03:00,
2013-08-24 21:18:00,51.0,49.0,30.35,NNE,23,0.0,0.0,91,0.00,,,0.00,weatherlink.com 1.10,2013-08-25 01:18:00,
2013-08-24 21:33:00,50.5,48.0,30.35,NNE,23,0.0,0.0,91,0.00,,,0.00,weatherlink.com 1.10,2013-08-25 01:33:00,
2013-08-24 21:48:00,50.0,48.0,30.35,NNE,23,0.0,0.0,92,0.00,,,0.00,weatherlink.com 1.10,2013-08-25 01:48:00,
2013-08-24 22:03:00,49.5,47.0,30.35,NNE,23,0.0,0.0,92,0.00,,,0.00,weatherlink.com 1.10,2013-08-25 02:03:00,
2013-08-24 22:19:00,49.0,47.0,30.35,NNE,23,0.0,0.0,92,0.00,,,0.00,weatherlink.com 1.10,2013-08-25 02:19:00,
2013-08-24 22:34:00,48.6,47.0,30.35,NNE,23,0.0,0.0,93,0.00,,,0.00,weatherlink.com 1.10,2013-08-25 02:34:00,
2013-08-24 22:49:00,48.5,47.0,30.35,NNE,23,0.0,0.0,93,0.00,,,0.00,weatherlink.com 1.10,2013-08-25 02:49:00,
2013-08-24 23:04:00,48.2,46.0,30.35,NNE,23,0.0,0.0,93,0.00,,,0.00,weatherlink.com 1.10,2013-08-25 03:04:00,
2013-08-24 23:19:00,48.1,47.0,30.35,NNE,23,0.0,0.0,94,0.00,,,0.00,weatherlink.com 1.10,2013-08-25 03:19:00,
2013-08-24 23:34:00,47.8,46.0,30.36,NNE,23,0.0,0.0,94,0.00,,,0.00,weatherlink.com 1.10,2013-08-25 03:34:00,
2013-08-24 23:49:00,47.4,46.0,30.36,NNE,23,0.0,0.0,94,0.00,,,0.00,weatherlink.com 1.10,2013-08-25 03:49:00,